createdAt,value
2017-06-03T00:01:15.130Z,74.50
2017-06-03T00:03:43.329Z,74.50
2017-06-03T00:06:11.475Z,75.10
2017-06-03T00:08:40.008Z,75.70
2017-06-03T00:11:08.142Z,76.00
2017-06-03T00:13:36.305Z,76.40
2017-06-03T00:16:05.570Z,77.40
2017-06-03T00:18:33.737Z,77.20
2017-06-03T00:21:01.898Z,77.40
2017-06-03T00:23:30.374Z,77.70
2017-06-03T00:25:58.523Z,78.30
2017-06-03T00:28:26.830Z,78.80
2017-06-03T00:30:55.520Z,78.90
2017-06-03T00:33:23.687Z,79.50
2017-06-03T00:35:51.814Z,79.50
2017-06-03T00:38:20.466Z,79.60
2017-06-03T00:40:49.406Z,80.10
2017-06-03T00:43:17.547Z,80.00
2017-06-03T00:45:46.007Z,80.10
2017-06-03T00:48:14.144Z,80.10
2017-06-03T00:50:42.339Z,80.20
2017-06-03T00:53:10.758Z,80.40
2017-06-03T00:55:38.940Z,80.80
2017-06-03T00:58:07.079Z,81.10
2017-06-03T01:00:35.594Z,81.30
2017-06-03T01:03:03.774Z,81.50
2017-06-03T01:05:31.920Z,81.90
2017-06-03T01:08:01.269Z,82.00
2017-06-03T01:10:29.420Z,81.90
2017-06-03T01:12:57.544Z,82.10
2017-06-03T01:15:26.123Z,82.20
2017-06-03T01:17:54.267Z,82.50
2017-06-03T01:20:22.417Z,82.80
2017-06-03T01:22:50.954Z,83.40
2017-06-03T01:25:19.095Z,83.80
2017-06-03T01:27:47.317Z,84.20
2017-06-03T01:30:15.831Z,84.70
2017-06-03T01:32:43.958Z,85.50
2017-06-03T01:35:12.874Z,85.50
2017-06-03T01:37:41.336Z,85.70
2017-06-03T01:40:09.459Z,85.60
2017-06-03T01:42:37.665Z,85.70
2017-06-03T01:45:06.989Z,86.70
2017-06-03T01:47:35.134Z,86.60
2017-06-03T01:50:04.053Z,88.00
2017-06-03T01:52:32.484Z,87.00
2017-06-03T01:55:00.690Z,87.10
2017-06-03T01:57:30.363Z,87.70
2017-06-03T01:59:58.855Z,87.70
2017-06-03T02:02:27.783Z,88.70
2017-06-03T02:04:56.038Z,88.70
2017-06-03T02:07:24.462Z,89.00
2017-06-03T02:09:52.617Z,89.20
2017-06-03T02:12:20.755Z,89.90
2017-06-03T02:14:49.320Z,90.00
2017-06-03T02:17:17.463Z,90.00
2017-06-03T02:19:45.664Z,90.10
2017-06-03T02:22:14.155Z,90.30
2017-06-03T02:24:43.348Z,90.90
2017-06-03T02:27:11.469Z,90.90
2017-06-03T02:29:39.921Z,91.10
2017-06-03T02:32:08.811Z,91.50
2017-06-03T02:34:37.048Z,91.10
2017-06-03T02:37:06.287Z,91.30
2017-06-03T02:39:35.182Z,91.30
2017-06-03T02:42:03.336Z,91.30
2017-06-03T02:44:31.775Z,91.30
2017-06-03T02:47:00.346Z,91.30
2017-06-03T02:49:29.367Z,91.40
2017-06-03T02:51:58.123Z,91.50
2017-06-03T02:54:26.265Z,91.30
2017-06-03T02:56:54.405Z,91.30
2017-06-03T02:59:22.814Z,91.30
2017-06-03T03:01:50.978Z,91.30
2017-06-03T03:04:19.116Z,91.60
2017-06-03T03:06:48.355Z,92.10
2017-06-03T03:09:16.493Z,91.90
2017-06-03T03:11:44.661Z,91.90
2017-06-03T03:14:13.117Z,92.10
2017-06-03T03:16:41.429Z,92.30
2017-06-03T03:19:09.637Z,92.20
2017-06-03T03:21:38.925Z,92.10
2017-06-03T03:24:07.074Z,92.10
2017-06-03T03:26:35.667Z,92.00
2017-06-03T03:29:04.548Z,91.80
2017-06-03T03:31:32.718Z,91.80
2017-06-03T03:34:01.178Z,91.90
2017-06-03T03:36:29.309Z,91.90
2017-06-03T03:38:57.532Z,91.80
2017-06-03T03:41:25.953Z,91.70
2017-06-03T03:43:54.069Z,91.80
2017-06-03T03:46:22.198Z,91.90
2017-06-03T03:48:51.446Z,91.80
2017-06-03T03:51:19.575Z,91.70
2017-06-03T03:53:47.736Z,91.70
2017-06-03T03:56:16.232Z,91.60
2017-06-03T03:58:44.379Z,91.30
2017-06-03T04:01:12.523Z,91.50
2017-06-03T04:03:40.937Z,91.30
2017-06-03T04:06:09.074Z,91.10
2017-06-03T04:08:37.212Z,91.10
2017-06-03T04:11:05.647Z,91.10
2017-06-03T04:13:33.784Z,91.00
2017-06-03T04:16:02.273Z,90.90
2017-06-03T04:18:30.718Z,90.90
2017-06-03T04:20:59.751Z,90.70
2017-06-03T04:23:28.011Z,90.60
2017-06-03T04:25:56.490Z,90.70
2017-06-03T04:28:26.012Z,90.10
2017-06-03T04:30:54.222Z,90.10
2017-06-03T04:33:22.703Z,90.00
2017-06-03T04:35:51.649Z,89.50
2017-06-03T04:38:20.556Z,88.80
2017-06-03T04:40:49.079Z,88.80
2017-06-03T04:43:17.216Z,88.30
2017-06-03T04:45:46.285Z,87.90
2017-06-03T04:48:15.463Z,87.30
2017-06-03T04:50:44.354Z,87.00
2017-06-03T04:53:12.497Z,86.80
2017-06-03T04:55:40.997Z,86.20
2017-06-03T04:58:09.143Z,85.80
2017-06-03T05:00:37.421Z,84.80
2017-06-03T05:03:05.892Z,84.20
2017-06-03T05:05:34.023Z,83.90
2017-06-03T05:08:02.150Z,83.60
2017-06-03T05:10:31.367Z,82.60
2017-06-03T05:12:59.669Z,82.50
2017-06-03T05:15:27.816Z,82.00
2017-06-03T05:17:56.301Z,81.60
2017-06-03T05:20:24.441Z,81.40
2017-06-03T05:22:52.600Z,80.50
2017-06-03T05:25:21.761Z,80.30
2017-06-03T05:27:49.889Z,80.10
2017-06-03T05:30:18.020Z,80.00
2017-06-03T05:32:46.531Z,80.00
2017-06-03T05:35:14.655Z,79.10
2017-06-03T05:37:42.808Z,79.50
2017-06-03T05:40:11.299Z,79.00
2017-06-03T05:42:39.428Z,78.70
2017-06-03T05:45:07.565Z,79.10
2017-06-03T05:47:35.997Z,78.40
2017-06-03T05:50:04.162Z,77.20
2017-06-03T05:52:32.302Z,76.80
2017-06-03T05:55:00.741Z,77.30
2017-06-03T05:57:28.933Z,77.40
2017-06-03T05:59:57.113Z,77.20
2017-06-03T06:02:25.593Z,76.60
2017-06-03T06:04:53.742Z,75.60
2017-06-03T06:07:21.879Z,74.80
2017-06-03T06:09:50.368Z,74.30
2017-06-03T06:12:19.273Z,74.00
2017-06-03T06:14:47.401Z,74.30
2017-06-03T06:17:15.862Z,73.70
2017-06-03T06:19:43.986Z,72.60
2017-06-03T06:22:12.356Z,72.60
2017-06-03T06:24:41.760Z,73.00
2017-06-03T06:27:09.918Z,72.90
2017-06-03T06:29:38.066Z,73.50
2017-06-03T06:32:06.536Z,73.60
2017-06-03T06:34:34.755Z,72.80
2017-06-03T06:37:03.688Z,72.70
2017-06-03T06:39:32.241Z,72.50
2017-06-03T06:42:00.381Z,72.70
2017-06-03T06:44:37.348Z,73.10
2017-06-03T06:47:05.558Z,72.00
2017-06-03T06:49:33.687Z,71.50
2017-06-03T06:52:02.238Z,70.50
2017-06-03T06:54:31.265Z,70.10
2017-06-03T06:57:00.555Z,69.80
2017-06-03T06:59:28.964Z,69.70
2017-06-03T07:01:57.102Z,68.60
2017-06-03T07:04:25.233Z,67.50
2017-06-03T07:06:53.759Z,66.10
2017-06-03T07:09:21.971Z,64.80
2017-06-03T07:11:50.113Z,62.20
2017-06-03T07:14:18.590Z,61.70
2017-06-03T07:16:46.731Z,62.00
2017-06-03T07:19:14.899Z,60.40
2017-06-03T07:21:43.444Z,59.70
2017-06-03T07:24:11.808Z,59.30
2017-06-03T07:26:39.928Z,59.40
2017-06-03T07:29:08.441Z,60.40
2017-06-03T07:31:36.626Z,60.10
2017-06-03T07:34:04.809Z,60.70
2017-06-03T07:36:33.246Z,59.30
2017-06-03T07:39:01.395Z,58.80
2017-06-03T07:41:29.543Z,60.80
2017-06-03T07:43:58.015Z,60.20
2017-06-03T07:46:26.173Z,59.10
2017-06-03T07:48:54.319Z,58.30
2017-06-03T07:51:22.806Z,57.20
2017-06-03T07:53:50.947Z,57.30
2017-06-03T07:56:19.101Z,58.20
2017-06-03T07:58:47.602Z,58.70
2017-06-03T08:03:53.585Z,59.20
2017-06-03T08:06:21.731Z,58.30
2017-06-03T08:08:49.881Z,58.40
2017-06-03T08:11:19.219Z,57.40
2017-06-03T08:13:48.226Z,58.40
2017-06-03T08:16:16.477Z,58.30
2017-06-03T08:18:44.975Z,58.50
2017-06-03T08:21:13.096Z,58.90
2017-06-03T08:23:41.265Z,58.40
2017-06-03T08:26:10.505Z,57.30
2017-06-03T08:28:38.739Z,57.20
2017-06-03T08:31:06.859Z,56.50
2017-06-03T08:33:35.272Z,56.20
2017-06-03T08:36:03.407Z,55.10
2017-06-03T08:38:31.622Z,55.10
2017-06-03T08:41:00.750Z,54.70
2017-06-03T08:43:28.900Z,54.70
2017-06-03T08:45:57.065Z,54.60
2017-06-03T08:48:25.480Z,54.50
2017-06-03T08:50:53.697Z,54.40
2017-06-03T08:53:21.871Z,53.40
2017-06-03T08:55:50.487Z,53.40
2017-06-03T08:58:18.668Z,53.70
2017-06-03T09:00:46.847Z,52.80
2017-06-03T09:03:15.341Z,52.20
2017-06-03T09:05:43.468Z,51.30
2017-06-03T09:08:11.626Z,51.20
2017-06-03T09:10:40.166Z,52.00
2017-06-03T09:13:08.329Z,52.90
2017-06-03T09:15:36.475Z,54.00
2017-06-03T09:18:05.729Z,53.70
2017-06-03T09:20:33.872Z,53.80
2017-06-03T09:23:02.069Z,54.30
2017-06-03T09:25:31.100Z,55.10
2017-06-03T09:27:59.300Z,54.80
2017-06-03T09:30:27.467Z,55.90
2017-06-03T09:32:55.983Z,55.40
2017-06-03T09:35:24.169Z,55.70
2017-06-03T09:37:52.301Z,55.70
2017-06-03T09:40:21.356Z,56.30
2017-06-03T09:42:49.479Z,56.90
2017-06-03T09:45:18.413Z,57.90
2017-06-03T09:47:46.843Z,57.90
2017-06-03T09:50:14.971Z,58.00
2017-06-03T09:52:43.089Z,58.30
2017-06-03T09:55:11.486Z,58.60
2017-06-03T09:57:39.744Z,58.70
2017-06-03T10:00:07.859Z,59.20
2017-06-03T10:02:36.302Z,59.50
2017-06-03T10:05:04.419Z,59.70
2017-06-03T10:07:32.690Z,59.30
2017-06-03T10:10:01.224Z,59.10
2017-06-03T10:12:29.348Z,59.30
2017-06-03T10:14:58.400Z,59.70
2017-06-03T10:17:26.826Z,59.60
2017-06-03T10:19:54.961Z,60.10
2017-06-03T10:22:23.104Z,60.60
2017-06-03T10:24:51.530Z,60.70
2017-06-03T10:27:19.671Z,61.30
2017-06-03T10:29:47.801Z,61.60
2017-06-03T10:32:16.323Z,63.20
2017-06-03T10:34:44.450Z,63.30
2017-06-03T10:37:12.897Z,63.90
2017-06-03T10:39:41.339Z,64.90
2017-06-03T10:42:09.478Z,67.00
2017-06-03T10:44:37.720Z,68.00
2017-06-03T10:47:06.289Z,68.90
2017-06-03T10:49:34.522Z,70.60
2017-06-03T10:52:02.697Z,71.70
2017-06-03T10:54:31.191Z,73.10
2017-06-03T10:56:59.328Z,73.00
2017-06-03T10:59:27.459Z,74.20
2017-06-03T11:01:55.927Z,75.70
2017-06-03T11:04:24.210Z,76.60
2017-06-03T11:06:52.329Z,77.10
2017-06-03T11:09:20.813Z,77.60
2017-06-03T11:11:48.967Z,77.80
2017-06-03T11:14:17.097Z,78.50
2017-06-03T11:16:46.308Z,79.30
2017-06-03T11:19:14.959Z,79.30
2017-06-03T11:21:43.910Z,79.10
2017-06-03T11:24:12.595Z,79.50
2017-06-03T11:26:40.736Z,81.10
2017-06-03T11:29:08.863Z,81.10
2017-06-03T11:31:37.332Z,82.00
2017-06-03T11:34:05.516Z,80.70
2017-06-03T11:36:33.637Z,80.90
2017-06-03T11:39:02.893Z,82.10
2017-06-03T11:41:31.011Z,81.90
2017-06-03T11:43:59.208Z,82.20
2017-06-03T11:46:27.634Z,82.30
2017-06-03T11:48:55.752Z,81.50
2017-06-03T11:51:23.872Z,81.40
2017-06-03T11:53:52.457Z,82.30
2017-06-03T11:56:21.397Z,84.20
2017-06-03T11:58:49.592Z,83.70
2017-06-03T12:01:18.113Z,82.50
2017-06-03T12:03:46.280Z,81.60
2017-06-03T12:06:15.371Z,81.90
2017-06-03T12:08:43.917Z,83.80
2017-06-03T12:11:12.157Z,84.00
2017-06-03T12:13:40.341Z,85.20
2017-06-03T12:16:08.880Z,85.30
2017-06-03T12:18:37.032Z,85.70
2017-06-03T12:21:05.959Z,86.90
2017-06-03T12:23:34.440Z,86.80
2017-06-03T12:26:02.644Z,87.80
2017-06-03T12:28:30.831Z,87.70
2017-06-03T12:30:59.339Z,88.30
2017-06-03T12:33:27.558Z,88.90
2017-06-03T12:35:55.713Z,88.50
2017-06-03T12:38:24.375Z,86.60
2017-06-03T12:40:52.516Z,86.40
2017-06-03T12:43:20.673Z,87.00
2017-06-03T12:45:49.179Z,87.20
2017-06-03T12:48:17.375Z,86.30
2017-06-03T12:50:45.599Z,84.30
2017-06-03T12:53:14.053Z,85.20
2017-06-03T12:55:42.194Z,84.80
2017-06-03T12:58:10.349Z,84.20
2017-06-03T13:00:38.848Z,84.10
2017-06-03T13:03:07.015Z,84.30
2017-06-03T13:05:35.208Z,84.50
2017-06-03T13:08:03.734Z,83.90
2017-06-03T13:10:31.867Z,83.60
2017-06-03T13:13:00.000Z,83.60
2017-06-03T13:15:28.504Z,83.40
2017-06-03T13:17:56.708Z,83.20
2017-06-03T13:20:24.956Z,83.20
2017-06-03T13:22:53.412Z,83.40
2017-06-03T13:25:21.560Z,83.40
2017-06-03T13:27:49.695Z,83.40
2017-06-03T13:30:18.201Z,83.10
2017-06-03T13:32:46.361Z,82.90
2017-06-03T13:35:14.537Z,82.80
2017-06-03T13:37:43.023Z,83.30
2017-06-03T13:40:11.154Z,83.80
2017-06-03T13:42:39.386Z,83.10
2017-06-03T13:45:07.863Z,83.40
2017-06-03T13:47:36.140Z,84.30
2017-06-03T13:50:04.314Z,84.10
2017-06-03T13:52:32.874Z,84.00
2017-06-03T13:55:01.786Z,84.40
2017-06-03T13:57:29.908Z,84.30
2017-06-03T13:59:58.415Z,84.60
2017-06-03T14:02:26.627Z,85.20
2017-06-03T14:04:54.790Z,85.10
2017-06-03T14:07:23.295Z,85.30
2017-06-03T14:09:52.246Z,85.40
2017-06-03T14:12:20.413Z,85.40
2017-06-03T14:14:48.913Z,85.50
2017-06-03T14:17:17.077Z,85.50
2017-06-03T14:19:45.242Z,85.10
2017-06-03T14:22:13.767Z,85.20
2017-06-03T14:24:41.938Z,85.20
2017-06-03T14:27:10.863Z,85.80
2017-06-03T14:29:39.334Z,85.80
2017-06-03T14:32:07.539Z,85.60
2017-06-03T14:34:35.673Z,85.60
2017-06-03T14:37:05.176Z,85.40
2017-06-03T14:39:33.391Z,85.30
2017-06-03T14:42:01.534Z,85.20
2017-06-03T14:44:29.972Z,86.30
2017-06-03T14:46:58.264Z,86.60
2017-06-03T14:49:26.406Z,87.50
2017-06-03T14:51:54.818Z,88.90
2017-06-03T14:54:22.988Z,88.50
2017-06-03T14:56:51.937Z,89.60
2017-06-03T14:59:20.416Z,88.60
2017-06-03T15:01:48.554Z,88.70
2017-06-03T15:04:16.709Z,88.30
2017-06-03T15:06:45.343Z,88.50
2017-06-03T15:09:13.489Z,87.90
2017-06-03T15:11:42.210Z,87.60
2017-06-03T15:14:11.466Z,87.80
2017-06-03T15:16:39.627Z,87.70
2017-06-03T15:19:07.933Z,87.50
2017-06-03T15:21:36.530Z,87.10
2017-06-03T15:24:04.662Z,86.90
2017-06-03T15:26:32.808Z,85.10
2017-06-03T15:29:01.316Z,84.90
2017-06-03T15:31:29.587Z,84.30
2017-06-03T15:33:57.747Z,84.50
2017-06-03T15:39:00.666Z,80.50
2017-06-03T15:41:29.331Z,80.20
2017-06-03T15:43:57.476Z,79.70
2017-06-03T15:46:25.605Z,79.50
2017-06-03T15:48:54.052Z,80.00
2017-06-03T15:51:22.242Z,80.10
2017-06-03T15:53:50.383Z,80.80
2017-06-03T15:56:19.632Z,81.10
2017-06-03T15:58:48.148Z,81.00
2017-06-03T16:01:16.431Z,80.90
2017-06-03T16:03:45.655Z,80.20
2017-06-03T16:06:13.805Z,80.10
2017-06-03T16:08:41.965Z,80.50
2017-06-03T16:11:12.247Z,79.60
2017-06-03T16:13:40.393Z,79.60
2017-06-03T16:16:08.585Z,78.70
2017-06-03T16:18:37.188Z,78.10
2017-06-03T16:21:06.767Z,77.50
2017-06-03T16:23:35.005Z,78.00
2017-06-03T16:26:03.458Z,77.90
2017-06-03T16:28:31.649Z,77.10
2017-06-03T16:30:59.890Z,77.10
2017-06-03T16:33:28.474Z,76.60
2017-06-03T16:35:57.391Z,76.10
2017-06-03T16:38:25.556Z,76.10
2017-06-03T16:40:54.067Z,76.00
2017-06-03T16:43:22.533Z,76.10
2017-06-03T16:45:50.676Z,76.40
2017-06-03T16:48:20.392Z,76.60
2017-06-03T16:50:48.994Z,76.00
2017-06-03T16:53:17.213Z,76.60
2017-06-03T16:55:45.805Z,77.40
2017-06-03T16:58:14.448Z,76.80
2017-06-03T17:00:43.892Z,77.80
2017-06-03T17:03:13.141Z,77.00
2017-06-03T17:05:42.113Z,78.00
2017-06-03T17:08:10.275Z,77.10
2017-06-03T17:10:38.719Z,77.40
2017-06-03T17:13:06.904Z,77.90
2017-06-03T17:15:35.082Z,78.00
2017-06-03T17:18:03.571Z,77.80
2017-06-03T17:20:31.717Z,78.00
2017-06-03T17:22:59.854Z,78.50
2017-06-03T17:25:28.268Z,79.00
2017-06-03T17:27:57.202Z,79.20
2017-06-03T17:30:25.337Z,79.10
2017-06-03T17:32:53.760Z,79.00
2017-06-03T17:35:22.072Z,78.60
2017-06-03T17:37:50.201Z,79.60
2017-06-03T17:40:18.611Z,79.00
2017-06-03T17:42:46.773Z,79.00
2017-06-03T17:45:14.899Z,79.60
2017-06-03T17:47:43.514Z,79.30
2017-06-03T17:50:11.635Z,79.70
2017-06-03T17:52:39.763Z,79.70
2017-06-03T17:55:08.221Z,79.70
2017-06-03T17:57:36.327Z,79.70
2017-06-03T18:00:04.454Z,79.70
2017-06-03T18:02:32.981Z,79.90
2017-06-03T18:05:01.333Z,80.10
2017-06-03T18:07:29.486Z,80.40
2017-06-03T18:09:57.909Z,80.60
2017-06-03T18:12:26.036Z,80.70
2017-06-03T18:14:54.159Z,81.00
2017-06-03T18:17:22.649Z,81.20
2017-06-03T18:19:50.788Z,80.90
2017-06-03T18:22:34.940Z,81.30
2017-06-03T18:25:03.076Z,81.10
2017-06-03T18:27:37.303Z,81.60
2017-06-03T18:30:05.583Z,81.10
2017-06-03T18:32:33.749Z,81.40
2017-06-03T18:35:02.343Z,81.60
2017-06-03T18:37:31.017Z,81.50
2017-06-03T18:39:59.237Z,81.30
2017-06-03T18:42:27.769Z,81.60
2017-06-03T18:44:55.879Z,81.50
2017-06-03T18:47:24.044Z,81.40
2017-06-03T18:49:52.565Z,82.30
2017-06-03T18:52:20.821Z,81.70
2017-06-03T18:54:49.027Z,81.60
2017-06-03T18:57:17.554Z,81.70
2017-06-03T18:59:45.700Z,81.80
2017-06-03T19:02:13.887Z,81.80
2017-06-03T19:04:43.119Z,82.00
2017-06-03T19:07:11.559Z,81.90
2017-06-03T19:09:39.683Z,82.10
2017-06-03T19:12:08.104Z,82.10
2017-06-03T19:14:36.235Z,82.70
2017-06-03T19:17:04.429Z,82.60
2017-06-03T19:19:32.963Z,82.50
2017-06-03T19:22:01.277Z,82.40
2017-06-03T19:24:29.453Z,82.20
2017-06-03T19:26:57.931Z,82.30
2017-06-03T19:29:26.080Z,83.40
2017-06-03T19:31:54.258Z,82.70
2017-06-03T19:34:23.507Z,83.50
2017-06-03T19:36:51.818Z,83.30
2017-06-03T19:39:21.090Z,83.50
2017-06-03T19:41:49.679Z,83.60
2017-06-03T19:44:17.815Z,83.70
2017-06-03T19:46:46.024Z,84.00
2017-06-03T19:49:14.537Z,84.10
2017-06-03T19:51:43.641Z,85.40
2017-06-03T19:54:11.760Z,84.70
2017-06-03T19:56:40.310Z,84.70
2017-06-03T19:59:08.483Z,85.30
2017-06-03T20:01:37.238Z,85.10
2017-06-03T20:04:05.762Z,85.20
2017-06-03T20:06:33.878Z,85.60
2017-06-03T20:09:02.031Z,86.00
2017-06-03T20:11:30.654Z,86.20
2017-06-03T20:13:58.829Z,86.50
2017-06-03T20:19:27.261Z,87.00
2017-06-03T20:21:55.398Z,87.10
2017-06-03T20:24:23.908Z,87.50
2017-06-03T20:26:52.075Z,87.70
2017-06-03T20:29:20.213Z,87.30
2017-06-03T20:31:48.767Z,87.30
2017-06-03T20:34:17.019Z,87.20
2017-06-03T20:36:45.147Z,87.70
2017-06-03T20:39:13.745Z,87.90
2017-06-03T20:41:41.887Z,88.10
2017-06-03T20:44:10.065Z,88.10
2017-06-03T20:46:38.500Z,88.50
2017-06-03T20:49:07.471Z,88.40
2017-06-03T20:51:35.620Z,88.40
2017-06-03T20:54:04.241Z,88.70
2017-06-03T20:56:32.378Z,88.80
2017-06-03T20:59:00.512Z,89.10
2017-06-03T21:01:29.092Z,89.20
2017-06-03T21:03:57.279Z,90.00
2017-06-03T21:06:25.419Z,89.10
2017-06-03T21:08:54.032Z,89.40
2017-06-03T21:11:22.163Z,89.10
2017-06-03T21:13:50.297Z,89.20
2017-06-03T21:16:18.802Z,89.00
2017-06-03T21:18:46.986Z,89.20
2017-06-03T21:21:15.139Z,89.50
2017-06-03T21:23:43.575Z,89.00
2017-06-03T21:26:11.746Z,88.60
2017-06-03T21:28:40.015Z,88.70
2017-06-03T21:31:08.463Z,88.50
2017-06-03T21:33:36.583Z,88.70
2017-06-03T21:36:04.715Z,88.70
2017-06-03T21:38:33.164Z,89.10
2017-06-03T21:41:01.380Z,88.50
2017-06-03T21:43:29.512Z,88.50
2017-06-03T21:45:58.100Z,88.50
2017-06-03T21:48:26.220Z,88.70
2017-06-03T21:50:54.338Z,88.60
2017-06-03T21:53:22.966Z,88.70
2017-06-03T21:55:51.867Z,88.80
2017-06-03T21:58:20.132Z,88.60
2017-06-03T22:00:48.556Z,89.20
2017-06-03T22:03:16.913Z,89.40
2017-06-03T22:05:45.085Z,89.60
2017-06-03T22:08:13.524Z,89.60
2017-06-03T22:10:41.686Z,89.30
2017-06-03T22:13:09.819Z,89.60
2017-06-03T22:15:38.223Z,89.90
2017-06-03T22:18:06.352Z,90.10
2017-06-03T22:20:34.510Z,90.10
2017-06-03T22:23:03.012Z,90.30
2017-06-03T22:25:31.149Z,90.40
2017-06-03T22:27:59.297Z,90.60
2017-06-03T22:30:28.557Z,90.90
2017-06-03T22:32:57.315Z,90.80
2017-06-03T22:35:25.462Z,90.90
2017-06-03T22:37:54.095Z,90.90
2017-06-03T22:40:22.247Z,91.00
2017-06-03T22:42:50.367Z,91.00
2017-06-03T22:45:19.614Z,91.10
2017-06-03T22:47:47.766Z,91.00
2017-06-03T22:50:15.899Z,91.20
2017-06-03T22:52:44.364Z,91.20
2017-06-03T22:55:12.513Z,91.40
2017-06-03T22:57:40.649Z,91.50
2017-06-03T23:00:09.201Z,91.50
2017-06-03T23:02:37.426Z,91.60
2017-06-03T23:05:05.564Z,91.60
2017-06-03T23:07:34.317Z,91.50
2017-06-03T23:10:02.490Z,91.50
2017-06-03T23:12:30.661Z,91.50
2017-06-03T23:14:59.157Z,91.80
2017-06-03T23:17:27.303Z,91.50
2017-06-03T23:19:55.453Z,91.50
2017-06-03T23:22:23.939Z,91.60
2017-06-03T23:24:52.072Z,91.60
2017-06-03T23:27:20.289Z,91.60
2017-06-03T23:29:48.701Z,91.60
2017-06-03T23:32:16.843Z,91.60
2017-06-03T23:34:45.261Z,91.60
2017-06-03T23:37:13.676Z,91.60
2017-06-03T23:39:41.812Z,91.50
2017-06-03T23:42:10.165Z,91.40
2017-06-03T23:44:38.610Z,91.40
2017-06-03T23:47:06.811Z,91.50
2017-06-03T23:49:34.959Z,91.40
2017-06-03T23:52:03.470Z,91.30
2017-06-03T23:54:32.462Z,91.30
2017-06-03T23:57:00.603Z,91.30
2017-06-03T23:59:29.079Z,91.30
